Saturday, November 1, 2014, 9:42 AM EDT

KEZF, Fredericksburg, Shannon Airport

Location: Fredericksburg, VA, United States Lat: 38.267
Local Time: 9:42 AM EDT (13:42 GMT) Lon: -77.45
Time Zone: US/Eastern Elev: 85 ft

Show me the last for .
Show Decoded

2014-11-01 09:15 METAR KEZF 011315Z AUTO 35009G14KT 10SM OVC020 10/05 A2978 RMK AO2 T00980051 =
2014-11-01 08:55 METAR KEZF 011255Z AUTO 35008KT 10SM OVC020 10/05 A2978 RMK AO2 T00960050 =
2014-11-01 08:35 METAR KEZF 011235Z AUTO 34007G15KT 10SM OVC020 09/05 A2978 RMK AO2 T00940047 =
2014-11-01 08:15 METAR KEZF 011215Z AUTO 35010G14KT 10SM OVC020 09/05 A2978 RMK AO2 T00910045 =
2014-11-01 07:55 METAR KEZF 011155Z AUTO 35009KT 10SM OVC020 09/04 A2977 RMK AO2 T00900042 10090
                 20051 =
2014-11-01 07:35 METAR KEZF 011135Z AUTO 34007G14KT 10SM BKN020 BKN027 OVC041 09/04 A2976 RMK AO2
                 T00870038 =
2014-11-01 07:15 METAR KEZF 011115Z AUTO 33008KT 10SM BKN020 BKN027 OVC060 09/04 A2976 RMK AO2
                 T00850037 =
2014-11-01 06:55 METAR KEZF 011055Z AUTO 33007KT 300V360 10SM SCT020 BKN050 OVC060 08/04 A2977
                 RMK AO2 T00810035 =
2014-11-01 06:35 METAR KEZF 011035Z AUTO 33004KT 10SM BKN027 BKN044 BKN050 08/03 A2977 RMK AO2
                 T00800032 =
2014-11-01 06:15 METAR KEZF 011015Z AUTO 33004KT 10SM BKN027 BKN046 08/03 A2977 RMK AO2 T00770032
                 =
2014-11-01 05:55 METAR KEZF 010955Z AUTO 33005KT 10SM BKN029 08/03 A2976 RMK AO2 T00750030 =
2014-11-01 05:35 METAR KEZF 010935Z AUTO 33004KT 10SM SCT025 07/03 A2976 RMK AO2 T00720028 =
2014-11-01 05:15 METAR KEZF 010915Z AUTO 33005KT 10SM SCT025 07/03 A2975 RMK AO2 T00700027 =
2014-11-01 04:55 METAR KEZF 010855Z AUTO 33004KT 10SM CLR 07/03 A2975 RMK AO2 T00700027 =
2014-11-01 04:35 METAR KEZF 010835Z AUTO 33005KT 10SM SCT050 07/03 A2975 RMK AO2 T00710027 =
2014-11-01 04:15 METAR KEZF 010815Z AUTO 33006KT 10SM BKN050 07/03 A2975 RMK AO2 T00730029 =
2014-11-01 03:55 METAR KEZF 010755Z AUTO 33005KT 10SM CLR 07/03 A2976 RMK AO2 T00660030 =
2014-11-01 03:35 METAR KEZF 010735Z AUTO 32006KT 10SM CLR 06/03 A2977 RMK AO2 T00640030 =
2014-11-01 03:15 METAR KEZF 010715Z AUTO 33006KT 10SM SCT120 06/03 A2977 RMK AO2 T00610034 =
2014-11-01 02:55 METAR KEZF 010655Z AUTO 32003KT 10SM CLR 05/03 A2977 RMK AO2 T00520032 =
2014-11-01 02:35 METAR KEZF 010635Z AUTO 32004KT 10SM CLR 05/04 A2978 RMK AO2 T00520035 =
2014-11-01 02:15 METAR KEZF 010615Z AUTO 32003KT 10SM CLR 05/04 A2979 RMK AO2 T00520035 =
2014-11-01 01:55 METAR KEZF 010555Z AUTO 32005KT 10SM CLR 06/03 A2979 RMK AO2 T00610034 10086
                 20058 401500030 =
2014-11-01 01:35 METAR KEZF 010535Z AUTO 33004KT 10SM CLR 06/04 A2979 RMK AO2 T00610036 =
2014-11-01 01:15 METAR KEZF 010515Z AUTO 32003KT 10SM CLR 06/04 A2980 RMK AO2 T00590040 =
2014-11-01 00:55 METAR KEZF 010455Z AUTO 31003KT 10SM CLR 06/04 A2980 RMK AO2 T00590041 =
2014-11-01 00:35 METAR KEZF 010435Z AUTO 30003KT 10SM CLR 06/04 A2981 RMK AO2 T00640042 =
2014-11-01 00:15 METAR KEZF 010415Z AUTO 31003KT 10SM CLR 07/05 A2981 RMK AO2 T00670046 =
2014-10-31 23:35 METAR KEZF 010335Z AUTO 00000KT 10SM SCT120 09/05 A2982 RMK AO2 T00850045 =
2014-10-31 23:15 METAR KEZF 010315Z AUTO 35003KT 10SM SCT120 08/05 A2983 RMK AO2 T00810047 =
2014-10-31 22:55 METAR KEZF 010255Z AUTO 34004KT 10SM SCT110 08/05 A2983 RMK AO2 T00760051 =
2014-10-31 22:35 METAR KEZF 010235Z AUTO 00000KT 10SM BKN110 08/05 A2984 RMK AO2 T00760050 =
2014-10-31 22:15 METAR KEZF 010215Z AUTO 00000KT 10SM SCT060 SCT120 07/05 A2984 RMK AO2 T00720049
                 =
2014-10-31 21:55 METAR KEZF 010155Z AUTO 36004KT 10SM SCT060 SCT120 08/05 A2983 RMK AO2 T00770047
                 =
2014-10-31 21:35 METAR KEZF 010135Z AUTO 00000KT 10SM OVC060 07/05 A2985 RMK AO2 T00710047 =
2014-10-31 21:15 METAR KEZF 010115Z AUTO 00000KT 10SM BKN060 07/04 A2985 RMK AO2 T00700044 =
2014-10-31 20:55 METAR KEZF 010055Z AUTO 31003KT 10SM BKN060 07/05 A2985 RMK AO2 T00700047 =
2014-10-31 20:35 METAR KEZF 010035Z AUTO 00000KT 10SM SCT060 07/05 A2984 RMK AO2 T00700045 =
2014-10-31 20:15 METAR KEZF 010015Z AUTO 00000KT 10SM SCT060 08/05 A2984 RMK AO2 T00760045 =
2014-10-31 19:55 METAR KEZF 312355Z AUTO 00000KT 10SM SCT060 08/04 A2985 RMK AO2 T00770044 10150
                 20077 =
2014-10-31 19:35 METAR KEZF 312335Z AUTO 00000KT 10SM CLR 08/05 A2985 RMK AO2 T00810046 =
2014-10-31 19:15 METAR KEZF 312315Z AUTO 00000KT 10SM CLR 09/04 A2985 RMK AO2 T00850043 =
2014-10-31 18:55 METAR KEZF 312255Z AUTO 00000KT 10SM CLR 09/04 A2985 RMK AO2 T00910040 =
2014-10-31 18:35 METAR KEZF 312235Z AUTO 03003KT 10SM CLR 11/04 A2985 RMK AO2 T01050037 =
2014-10-31 18:15 METAR KEZF 312215Z AUTO 04003KT 10SM CLR 12/03 A2985 RMK AO2 T01160033 =
2014-10-31 17:55 METAR KEZF 312155Z AUTO 04003KT 10SM CLR 12/03 A2985 RMK AO2 T01210034 =
2014-10-31 17:35 METAR KEZF 312135Z AUTO 07005KT 10SM CLR 13/03 A2986 RMK AO2 T01280032 =
2014-10-31 17:15 METAR KEZF 312115Z AUTO 05004KT 10SM CLR 13/03 A2985 RMK AO2 T01320033 =
2014-10-31 16:55 METAR KEZF 312055Z AUTO 07006KT 10SM CLR 14/03 A2985 RMK AO2 T01390031 =
2014-10-31 16:35 METAR KEZF 312035Z AUTO 06005KT 10SM SCT060 14/03 A2985 RMK AO2 T01400033 =
2014-10-31 16:15 METAR KEZF 312015Z AUTO 04005KT 10SM BKN060 14/03 A2985 RMK AO2 T01400029 =
2014-10-31 15:55 METAR KEZF 311955Z AUTO 06007KT 10SM BKN060 15/03 A2985 RMK AO2 T01500027 =
2014-10-31 15:35 METAR KEZF 311935Z AUTO 03004KT 10SM OVC060 14/03 A2986 RMK AO2 T01390025 =
2014-10-31 15:15 METAR KEZF 311915Z AUTO 06003KT 10SM OVC060 14/03 A2986 RMK AO2 T01390025 =
2014-10-31 14:55 METAR KEZF 311855Z AUTO 06004KT 10SM OVC060 14/02 A2987 RMK AO2 T01380024 =
2014-10-31 14:35 METAR KEZF 311835Z AUTO 03006KT 10SM OVC060 14/03 A2988 RMK AO2 T01400026 =
2014-10-31 14:15 METAR KEZF 311815Z AUTO 06006KT 10SM OVC050 14/02 A2988 RMK AO2 T01380020 =
2014-10-31 13:55 METAR KEZF 311755Z AUTO 02004KT 10SM OVC050 14/02 A2989 RMK AO2 T01360021 10143
                 20033 =
2014-10-31 13:35 METAR KEZF 311735Z AUTO 07004KT 10SM OVC050 14/02 A2991 RMK AO2 T01350016 =
2014-10-31 13:15 METAR KEZF 311715Z AUTO 04004KT 10SM OVC050 14/02 A2991 RMK AO2 T01360020 =
2014-10-31 12:55 METAR KEZF 311655Z AUTO 03004KT 10SM SCT045 OVC050 14/02 A2992 RMK AO2 T01410023
                 =
2014-10-31 12:35 METAR KEZF 311635Z AUTO 09003KT 10SM BKN048 13/03 A2993 RMK AO2 T01320034 =
2014-10-31 12:15 METAR KEZF 311615Z AUTO 03003KT 10SM SCT039 SCT060 13/04 A2994 RMK AO2 T01330039
                 =
2014-10-31 11:55 METAR KEZF 311555Z AUTO 14004KT 10SM SCT039 BKN060 14/04 A2994 RMK AO2 T01370044
                 =
2014-10-31 11:35 METAR KEZF 311535Z AUTO 13003KT 10SM BKN060 13/05 A2995 RMK AO2 T01340048 =
2014-10-31 11:15 METAR KEZF 311515Z AUTO 08004KT 10SM CLR 13/06 A2996 RMK AO2 T01270057 =
2014-10-31 10:55 METAR KEZF 311455Z AUTO 09004KT 10SM CLR 12/06 A2997 RMK AO2 T01170064 =
2014-10-31 10:35 METAR KEZF 311435Z AUTO 00000KT 10SM CLR 10/06 A2997 RMK AO2 T01040060 =
2014-10-31 10:15 METAR KEZF 311415Z AUTO 00000KT 10SM CLR 08/05 A2998 RMK AO2 T00840051 =
2014-10-31 09:55 METAR KEZF 311355Z AUTO 00000KT 10SM CLR 07/04 A2998 RMK AO2 T00700041 =

Support USWX by starting your Amazon purchase here.